createdAt,value
2018-11-22T00:00:21.247Z,81.90
2018-11-22T00:02:51.506Z,82.40
2018-11-22T00:05:20.467Z,81.20
2018-11-22T00:07:50.059Z,81.40
2018-11-22T00:10:19.033Z,81.50
2018-11-22T00:12:47.718Z,81.60
2018-11-22T00:15:16.988Z,81.70
2018-11-22T00:17:46.010Z,81.40
2018-11-22T00:20:14.690Z,81.10
2018-11-22T00:22:43.330Z,80.80
2018-11-22T00:25:13.371Z,80.80
2018-11-22T00:27:42.276Z,80.90
2018-11-22T00:30:13.357Z,81.20
2018-11-22T00:32:42.047Z,81.40
2018-11-22T00:35:12.099Z,81.50
2018-11-22T00:37:41.746Z,81.40
2018-11-22T00:40:13.024Z,82.20
2018-11-22T00:42:42.283Z,81.20
2018-11-22T00:45:12.823Z,82.10
2018-11-22T00:47:41.592Z,81.40
2018-11-22T00:50:12.239Z,81.00
2018-11-22T00:52:41.166Z,81.10
2018-11-22T00:55:11.907Z,81.10
2018-11-22T00:57:40.853Z,80.90
2018-11-22T01:00:20.279Z,80.90
2018-11-22T01:02:49.143Z,81.10
2018-11-22T01:05:19.162Z,81.50
2018-11-22T01:07:47.977Z,81.70
2018-11-22T01:10:24.210Z,82.30
2018-11-22T01:12:55.277Z,81.70
2018-11-22T01:15:23.861Z,81.90
2018-11-22T01:17:52.654Z,82.00
2018-11-22T01:20:22.308Z,81.90
2018-11-22T01:23:01.500Z,81.90
2018-11-22T01:25:30.122Z,81.90
2018-11-22T01:27:58.817Z,82.20
2018-11-22T01:30:27.864Z,82.00
2018-11-22T01:32:57.382Z,81.90
2018-11-22T01:35:26.593Z,81.70
2018-11-22T01:37:55.423Z,81.60
2018-11-22T01:40:24.902Z,81.80
2018-11-22T01:42:53.713Z,81.70
2018-11-22T01:45:26.377Z,81.50
2018-11-22T01:47:55.061Z,82.20
2018-11-22T01:50:24.040Z,82.10
2018-11-22T01:52:52.647Z,81.40
2018-11-22T01:55:22.330Z,81.40
2018-11-22T01:57:51.016Z,80.80
2018-11-22T02:00:22.189Z,80.60
2018-11-22T02:02:50.949Z,80.70
2018-11-22T02:05:22.509Z,80.40
2018-11-22T02:07:51.165Z,79.60
2018-11-22T02:10:20.936Z,79.50
2018-11-22T02:12:49.576Z,78.90
2018-11-22T02:15:22.882Z,78.70
2018-11-22T02:17:51.523Z,78.50
2018-11-22T02:20:21.452Z,78.30
2018-11-22T02:22:50.176Z,78.30
2018-11-22T02:25:20.290Z,78.00
2018-11-22T02:27:48.968Z,78.20
2018-11-22T02:30:19.679Z,77.90
2018-11-22T02:32:49.720Z,77.70
2018-11-22T02:35:18.664Z,77.50
2018-11-22T02:37:47.384Z,77.50
2018-11-22T02:40:17.616Z,77.10
2018-11-22T02:42:46.815Z,76.50
2018-11-22T02:45:16.826Z,77.10
2018-11-22T02:47:45.500Z,77.10
2018-11-22T02:50:15.545Z,77.00
2018-11-22T02:52:44.286Z,76.50
2018-11-22T02:55:13.042Z,76.80
2018-11-22T02:57:42.284Z,76.50
2018-11-22T03:00:37.756Z,76.60
2018-11-22T03:03:07.155Z,76.60
2018-11-22T03:05:35.749Z,76.70
2018-11-22T03:08:04.594Z,76.60
2018-11-22T03:10:33.279Z,76.50
2018-11-22T03:13:04.614Z,76.50
2018-11-22T03:15:33.486Z,76.50
2018-11-22T03:18:02.670Z,76.50
2018-11-22T03:20:31.504Z,76.60
2018-11-22T03:23:00.154Z,76.20
2018-11-22T03:25:28.735Z,76.40
2018-11-22T03:27:57.344Z,76.70
2018-11-22T03:30:26.236Z,76.50
2018-11-22T03:32:54.813Z,76.50
2018-11-22T03:35:24.832Z,76.50
2018-11-22T03:37:53.474Z,76.50
2018-11-22T03:40:23.456Z,76.50
2018-11-22T03:42:52.092Z,76.70
2018-11-22T03:45:21.184Z,76.00
2018-11-22T03:47:49.877Z,75.90
2018-11-22T03:50:23.119Z,75.90
2018-11-22T03:52:53.011Z,76.30
2018-11-22T03:55:21.754Z,76.00
2018-11-22T03:57:50.710Z,76.10
2018-11-22T04:00:24.439Z,75.60
2018-11-22T04:02:53.488Z,76.00
2018-11-22T04:05:23.439Z,75.60
2018-11-22T04:07:52.127Z,75.60
2018-11-22T04:10:22.192Z,76.00
2018-11-22T04:12:50.868Z,75.90
2018-11-22T04:15:19.512Z,76.40
2018-11-22T04:17:48.132Z,76.40
2018-11-22T04:20:18.296Z,76.60
2018-11-22T04:22:47.126Z,76.30
2018-11-22T04:25:16.633Z,76.40
2018-11-22T04:27:45.466Z,75.90
2018-11-22T04:30:28.866Z,76.00
2018-11-22T04:32:57.517Z,76.10
2018-11-22T04:35:26.521Z,76.40
2018-11-22T04:37:55.120Z,76.30
2018-11-22T04:40:24.795Z,76.20
2018-11-22T04:42:54.171Z,76.10
2018-11-22T04:45:24.073Z,76.50
2018-11-22T04:47:54.198Z,76.50
2018-11-22T04:50:24.103Z,76.00
2018-11-22T04:52:52.778Z,75.70
2018-11-22T04:55:21.876Z,75.90
2018-11-22T04:57:50.527Z,76.00
2018-11-22T05:00:20.619Z,75.80
2018-11-22T05:02:49.283Z,75.80
2018-11-22T05:05:19.341Z,76.10
2018-11-22T05:07:48.248Z,75.90
2018-11-22T05:10:18.339Z,75.80
2018-11-22T05:12:47.572Z,75.50
2018-11-22T05:15:17.533Z,75.90
2018-11-22T05:17:46.145Z,75.90
2018-11-22T05:20:16.078Z,75.90
2018-11-22T05:22:44.787Z,75.70
2018-11-22T05:25:13.820Z,75.80
2018-11-22T05:27:42.557Z,75.50
2018-11-22T05:30:13.984Z,74.70
2018-11-22T05:32:42.590Z,75.40
2018-11-22T05:35:12.295Z,75.30
2018-11-22T05:37:41.163Z,75.50
2018-11-22T05:40:12.192Z,75.60
2018-11-22T05:42:41.328Z,75.40
2018-11-22T05:45:12.247Z,75.30
2018-11-22T05:47:41.111Z,75.50
2018-11-22T05:50:11.752Z,75.70
2018-11-22T05:52:40.431Z,75.90
2018-11-22T05:55:10.017Z,76.10
2018-11-22T05:57:38.929Z,76.00
2018-11-22T06:00:22.459Z,76.00
2018-11-22T06:02:51.335Z,75.80
2018-11-22T06:05:21.296Z,75.80
2018-11-22T06:07:50.080Z,75.70
2018-11-22T06:10:22.976Z,75.40
2018-11-22T06:12:52.258Z,76.00
2018-11-22T06:15:20.870Z,76.10
2018-11-22T06:17:50.821Z,76.40
2018-11-22T06:20:23.752Z,76.60
2018-11-22T06:22:52.733Z,77.50
2018-11-22T06:25:21.621Z,77.00
2018-11-22T06:27:50.607Z,76.60
2018-11-22T06:30:27.154Z,76.60
2018-11-22T06:32:57.295Z,76.90
2018-11-22T06:35:26.254Z,76.80
2018-11-22T06:37:54.835Z,76.70
2018-11-22T06:40:23.504Z,76.50
2018-11-22T06:42:53.038Z,76.40
2018-11-22T06:45:23.887Z,76.20
2018-11-22T06:47:51.855Z,76.60
2018-11-22T06:50:21.359Z,76.70
2018-11-22T06:52:50.064Z,76.90
2018-11-22T06:55:20.278Z,76.80
2018-11-22T06:57:48.911Z,76.70
2018-11-22T07:00:18.850Z,76.40
2018-11-22T07:02:48.377Z,76.40
2018-11-22T07:05:18.280Z,76.50
2018-11-22T07:07:46.944Z,76.70
2018-11-22T07:10:16.596Z,76.40
2018-11-22T07:12:45.671Z,76.50
2018-11-22T07:15:15.226Z,76.60
2018-11-22T07:17:43.899Z,76.70
2018-11-22T07:20:14.969Z,76.60
2018-11-22T07:22:44.270Z,76.60
2018-11-22T07:25:15.586Z,76.60
2018-11-22T07:27:44.314Z,76.70
2018-11-22T07:30:15.343Z,76.40
2018-11-22T07:32:44.451Z,77.00
2018-11-22T07:35:16.736Z,76.70
2018-11-22T07:37:48.145Z,76.70
2018-11-22T07:40:25.722Z,76.30
2018-11-22T07:42:54.678Z,76.70
2018-11-22T07:45:24.960Z,76.30
2018-11-22T07:47:54.517Z,76.10
2018-11-22T07:50:23.724Z,75.90
2018-11-22T07:52:52.375Z,76.10
2018-11-22T07:55:21.303Z,75.50
2018-11-22T07:57:50.035Z,75.80
2018-11-22T08:00:20.501Z,75.80
2018-11-22T08:02:49.750Z,75.70
2018-11-22T08:05:19.332Z,75.90
2018-11-22T08:07:47.994Z,75.70
2018-11-22T08:10:17.634Z,75.90
2018-11-22T08:12:47.081Z,75.70
2018-11-22T08:15:19.782Z,76.00
2018-11-22T08:17:48.686Z,76.20
2018-11-22T08:20:18.564Z,76.30
2018-11-22T08:22:47.555Z,75.80
2018-11-22T08:25:17.493Z,75.70
2018-11-22T08:27:47.019Z,76.40
2018-11-22T08:30:16.631Z,75.30
2018-11-22T08:32:46.740Z,74.90
2018-11-22T08:35:14.885Z,74.50
2018-11-22T08:37:43.539Z,74.60
2018-11-22T08:40:16.738Z,73.80
2018-11-22T08:42:45.641Z,73.90
2018-11-22T08:45:15.664Z,74.10
2018-11-22T08:47:44.597Z,73.70
2018-11-22T08:50:14.938Z,74.10
2018-11-22T08:52:45.023Z,74.20
2018-11-22T08:55:14.276Z,74.50
2018-11-22T08:57:43.043Z,73.70
2018-11-22T09:00:23.189Z,73.80
2018-11-22T09:02:52.058Z,73.90
2018-11-22T09:05:22.083Z,73.90
2018-11-22T09:07:50.774Z,73.80
2018-11-22T12:17:50.387Z,68.70
2018-11-22T12:20:19.851Z,68.20
2018-11-22T12:22:49.912Z,68.00
2018-11-22T12:25:19.962Z,67.70
2018-11-22T12:27:50.462Z,67.20
2018-11-22T12:30:21.223Z,67.20
2018-11-22T12:32:55.511Z,67.30
2018-11-22T12:35:29.793Z,67.30
2018-11-22T12:38:04.118Z,67.20
2018-11-22T12:40:33.587Z,67.20
2018-11-22T12:43:02.295Z,67.30
2018-11-22T12:45:31.858Z,67.40
2018-11-22T12:48:01.339Z,67.30
2018-11-22T12:50:30.166Z,66.90
2018-11-22T12:52:58.868Z,67.20
2018-11-22T12:55:27.972Z,67.40
2018-11-22T12:57:56.741Z,67.40
2018-11-22T13:00:26.230Z,67.40
2018-11-22T13:02:55.483Z,67.50
2018-11-22T13:05:24.387Z,67.50
2018-11-22T13:07:53.525Z,67.50
2018-11-22T13:10:22.503Z,66.90
2018-11-22T13:12:51.724Z,66.70
2018-11-22T13:15:21.500Z,67.00
2018-11-22T13:17:50.681Z,67.30
2018-11-22T13:20:21.084Z,67.10
2018-11-22T13:22:49.875Z,67.50
2018-11-22T13:25:21.306Z,67.40
2018-11-22T13:27:50.245Z,67.30
2018-11-22T13:30:21.752Z,66.60
2018-11-22T13:32:51.107Z,66.90
2018-11-22T13:35:20.915Z,66.70
2018-11-22T13:37:51.098Z,66.30
2018-11-22T13:40:20.139Z,66.50
2018-11-22T13:42:50.047Z,66.50
2018-11-22T13:45:21.497Z,66.50
2018-11-22T13:47:51.528Z,66.80
2018-11-22T13:50:23.348Z,66.60
2018-11-22T13:52:54.194Z,66.50
2018-11-22T13:55:23.474Z,66.50
2018-11-22T13:57:52.361Z,67.70
2018-11-22T14:00:22.953Z,66.60
2018-11-22T14:02:54.025Z,66.70
2018-11-22T14:05:22.967Z,66.90
2018-11-22T14:07:51.795Z,67.30
2018-11-22T14:10:21.218Z,68.00
2018-11-22T14:12:50.100Z,67.30
2018-11-22T14:15:21.133Z,67.30
2018-11-22T14:17:51.035Z,67.30
2018-11-22T14:20:22.176Z,67.30
2018-11-22T14:22:50.784Z,67.40
2018-11-22T14:25:19.452Z,67.00
2018-11-22T14:27:49.166Z,67.20
2018-11-22T14:30:20.336Z,67.30
2018-11-22T14:32:49.726Z,67.40
2018-11-22T14:35:19.338Z,67.80
2018-11-22T14:37:48.002Z,67.90
2018-11-22T14:40:21.831Z,68.20
2018-11-22T14:42:50.988Z,68.00
2018-11-22T14:45:19.649Z,68.00
2018-11-22T14:47:49.451Z,68.20
2018-11-22T14:50:36.870Z,69.10
2018-11-22T14:53:09.401Z,68.40
2018-11-22T14:55:38.624Z,68.10
2018-11-22T14:58:07.963Z,68.30
2018-11-22T15:00:36.745Z,68.50
2018-11-22T15:03:06.237Z,68.50
2018-11-22T15:05:35.142Z,68.50
2018-11-22T15:08:03.676Z,68.60
2018-11-22T15:10:32.416Z,68.30
2018-11-22T15:13:01.205Z,68.50
2018-11-22T15:15:30.442Z,68.80
2018-11-22T15:17:59.144Z,69.00
2018-11-22T15:20:28.146Z,69.20
2018-11-22T15:22:56.851Z,69.30
2018-11-22T15:25:27.090Z,69.30
2018-11-22T15:27:55.910Z,69.20
2018-11-22T15:30:26.256Z,69.20
2018-11-22T15:32:55.570Z,69.30
2018-11-22T15:35:25.808Z,69.10
2018-11-22T15:37:55.150Z,69.00
2018-11-22T15:40:25.272Z,69.00
2018-11-22T15:42:55.533Z,69.10
2018-11-22T15:45:25.874Z,69.50
2018-11-22T15:47:54.678Z,69.60
2018-11-22T15:50:24.866Z,70.10
2018-11-22T15:52:53.653Z,70.20
2018-11-22T15:55:22.812Z,70.30
2018-11-22T15:57:52.975Z,70.50
2018-11-22T16:00:24.844Z,70.70
2018-11-22T16:02:54.130Z,71.10
2018-11-22T16:05:23.543Z,71.40
2018-11-22T16:07:52.415Z,71.50
2018-11-22T16:10:26.780Z,71.60
2018-11-22T16:12:54.060Z,71.70
2018-11-22T16:15:28.928Z,71.90
2018-11-22T16:17:58.028Z,71.90
2018-11-22T16:20:26.640Z,71.90
2018-11-22T16:22:55.480Z,72.10
2018-11-22T16:25:24.259Z,72.20
2018-11-22T16:27:53.464Z,72.40
2018-11-22T16:30:23.980Z,72.40
2018-11-22T16:32:53.300Z,72.50
2018-11-22T16:35:22.862Z,72.40
2018-11-22T16:37:51.581Z,73.30
2018-11-22T16:40:23.676Z,72.40
2018-11-22T16:42:53.398Z,72.60
2018-11-22T16:45:28.288Z,72.80
2018-11-22T16:47:58.224Z,72.80
2018-11-22T16:50:28.233Z,72.80
2018-11-22T16:52:57.140Z,73.00
2018-11-22T16:55:26.575Z,73.00
2018-11-22T16:57:56.374Z,72.80
2018-11-22T17:00:27.235Z,72.70
2018-11-22T17:02:57.366Z,72.80
2018-11-22T17:05:26.388Z,72.70
2018-11-22T17:07:55.216Z,72.70
2018-11-22T17:10:25.396Z,72.40
2018-11-22T17:12:55.577Z,72.60
2018-11-22T17:15:26.039Z,72.30
2018-11-22T17:17:55.527Z,72.20
2018-11-22T17:20:24.793Z,72.00
2018-11-22T17:22:54.138Z,72.10
2018-11-22T17:25:24.588Z,72.30
2018-11-22T17:27:55.405Z,72.40
2018-11-22T17:30:26.023Z,72.60
2018-11-22T17:32:54.765Z,72.40
2018-11-22T17:35:25.116Z,72.20
2018-11-22T17:37:55.125Z,72.70
2018-11-22T17:40:26.060Z,72.20
2018-11-22T17:42:54.993Z,72.30
2018-11-22T17:45:31.765Z,72.50
2018-11-22T17:48:01.118Z,72.80
2018-11-22T17:50:32.609Z,73.10
2018-11-22T17:53:01.886Z,73.50
2018-11-22T17:55:31.624Z,73.90
2018-11-22T17:58:00.545Z,73.90
2018-11-22T18:00:31.116Z,74.00
2018-11-22T18:03:01.005Z,74.10
2018-11-22T18:05:29.774Z,74.10
2018-11-22T18:07:58.675Z,74.10
2018-11-22T18:10:29.141Z,74.10
2018-11-22T18:12:58.598Z,74.30
2018-11-22T18:15:28.159Z,74.50
2018-11-22T18:17:57.578Z,74.70
2018-11-22T18:20:28.817Z,74.80
2018-11-22T18:22:58.747Z,75.00
2018-11-22T18:25:29.297Z,75.00
2018-11-22T18:27:58.284Z,74.80
2018-11-22T18:30:34.113Z,74.90
2018-11-22T18:33:04.473Z,75.10
2018-11-22T18:35:33.289Z,75.40
2018-11-22T18:38:02.260Z,75.30
2018-11-22T18:40:32.576Z,75.30
2018-11-22T18:43:02.383Z,75.00
2018-11-22T18:45:32.843Z,75.30
2018-11-22T18:48:02.903Z,75.50
2018-11-22T18:50:33.009Z,75.40
2018-11-22T18:53:01.921Z,75.30
2018-11-22T18:55:31.051Z,75.20
2018-11-22T18:58:00.401Z,75.20
2018-11-22T19:00:30.732Z,76.10
2018-11-22T19:03:01.121Z,75.20
2018-11-22T19:05:30.186Z,75.40
2018-11-22T19:07:59.729Z,75.60
2018-11-22T19:10:30.413Z,75.60
2018-11-22T19:13:00.925Z,75.90
2018-11-22T19:15:31.143Z,76.90
2018-11-22T19:18:00.375Z,76.20
2018-11-22T19:20:31.771Z,76.30
2018-11-22T19:23:01.706Z,76.60
2018-11-22T19:25:30.748Z,76.60
2018-11-22T19:28:00.552Z,77.10
2018-11-22T19:30:37.082Z,75.90
2018-11-22T19:33:01.566Z,75.90
2018-11-22T19:35:31.765Z,75.90
2018-11-22T19:38:00.582Z,76.00
2018-11-22T19:40:32.714Z,76.00
2018-11-22T19:43:02.801Z,76.00
2018-11-22T19:45:33.370Z,76.20
2018-11-22T19:48:02.495Z,76.40
2018-11-22T19:50:32.131Z,76.50
2018-11-22T19:53:02.475Z,76.90
2018-11-22T19:55:32.388Z,77.40
2018-11-22T19:58:02.895Z,77.10
2018-11-22T20:00:32.299Z,78.20
2018-11-22T20:03:02.338Z,77.70
2018-11-22T20:05:32.551Z,78.30
2018-11-22T20:08:02.821Z,77.90
2018-11-22T20:10:33.004Z,78.10
2018-11-22T20:13:02.261Z,78.20
2018-11-22T20:15:31.573Z,78.40
2018-11-22T20:18:01.478Z,78.70
2018-11-22T20:20:30.543Z,78.80
2018-11-22T20:22:59.759Z,79.00
2018-11-22T20:25:28.946Z,79.10
2018-11-22T20:27:58.025Z,79.10
2018-11-22T20:30:32.289Z,80.10
2018-11-22T20:33:01.303Z,79.30
2018-11-22T20:35:31.049Z,79.20
2018-11-22T20:37:59.831Z,79.40
2018-11-22T20:40:29.417Z,79.40
2018-11-22T20:42:58.966Z,79.50
2018-11-22T20:45:28.681Z,79.30
2018-11-22T20:48:05.114Z,79.50
2018-11-22T20:50:34.365Z,79.50
2018-11-22T20:53:03.109Z,79.50
2018-11-22T20:55:33.571Z,79.50
2018-11-22T20:58:04.219Z,79.50
2018-11-22T21:00:34.558Z,79.40
2018-11-22T21:03:04.023Z,79.80
2018-11-22T21:05:32.994Z,79.40
2018-11-22T21:08:01.957Z,79.80
2018-11-22T21:10:32.320Z,79.80
2018-11-22T21:13:01.627Z,80.10
2018-11-22T21:15:31.799Z,80.30
2018-11-22T21:18:02.205Z,80.30
2018-11-22T21:20:32.608Z,80.30
2018-11-22T21:23:01.696Z,80.40
2018-11-22T21:25:30.938Z,80.40
2018-11-22T21:27:59.925Z,80.40
2018-11-22T21:30:35.945Z,80.30
2018-11-22T21:33:05.597Z,80.20
2018-11-22T21:35:34.779Z,80.20
2018-11-22T21:38:04.750Z,80.30
2018-11-22T21:40:34.019Z,80.30
2018-11-22T21:43:03.011Z,80.30
2018-11-22T21:45:32.936Z,80.40
2018-11-22T21:48:02.149Z,80.40
2018-11-22T21:50:31.080Z,80.40
2018-11-22T21:53:00.134Z,80.60
2018-11-22T21:55:29.854Z,80.70
2018-11-22T21:58:00.275Z,80.80
2018-11-22T22:00:34.546Z,80.80
2018-11-22T22:03:04.976Z,80.90
2018-11-22T22:05:33.794Z,81.00
2018-11-22T22:08:03.374Z,81.20
2018-11-22T22:10:32.044Z,81.30
2018-11-22T22:13:01.301Z,81.40
2018-11-22T22:15:31.377Z,81.50
2018-11-22T22:18:00.648Z,81.50
2018-11-22T22:20:31.493Z,81.60
2018-11-22T22:23:00.243Z,81.60
2018-11-22T22:25:29.420Z,81.60
2018-11-22T22:27:58.549Z,81.70
2018-11-22T22:30:28.735Z,81.60
2018-11-22T22:32:59.212Z,81.70
2018-11-22T22:35:27.896Z,81.50
2018-11-22T22:37:56.459Z,82.00
2018-11-22T22:40:26.595Z,81.30
2018-11-22T22:42:56.251Z,81.50
2018-11-22T22:45:26.276Z,81.60
2018-11-22T22:47:54.995Z,81.70
2018-11-22T22:50:25.922Z,81.80
2018-11-22T22:52:55.912Z,81.90
2018-11-22T22:55:24.930Z,82.00
2018-11-22T22:57:53.632Z,82.00
2018-11-22T23:00:28.541Z,82.00
2018-11-22T23:02:58.747Z,82.00
2018-11-22T23:05:28.030Z,82.00
2018-11-22T23:07:56.640Z,81.90
2018-11-22T23:10:26.036Z,82.30
2018-11-22T23:12:55.518Z,82.40
2018-11-22T23:15:25.548Z,82.30
2018-11-22T23:17:54.279Z,82.50
2018-11-22T23:20:24.347Z,82.50
2018-11-22T23:22:53.242Z,82.70
2018-11-22T23:25:23.028Z,82.60
2018-11-22T23:27:51.697Z,82.70
2018-11-22T23:30:25.413Z,82.50
2018-11-22T23:32:56.539Z,83.10
2018-11-22T23:35:25.069Z,82.50
2018-11-22T23:37:54.188Z,82.00
2018-11-22T23:40:27.130Z,82.60
2018-11-22T23:42:55.830Z,82.60
2018-11-22T23:45:25.897Z,82.50
2018-11-22T23:47:54.469Z,82.90
2018-11-22T23:50:25.548Z,83.20
2018-11-22T23:52:55.343Z,83.30
2018-11-22T23:55:24.243Z,83.20
2018-11-22T23:57:53.470Z,83.00
